Union Mills, Pennsylvania
Current Conditions -  °F | °C
As of 6:53 PM on Saturday 25 Oct 2014 (Local Time) from KUNV Reporting Station
Scattered Clouds Scattered Clouds  
Wind Chill: 61°   Ceiling: Unl
Heat Index: 61°   Visibility: 10mi
Dew Point: 48°   Wind: 12mph
Humidity: 63%   Direction: 230°SW
Pressure: 29.7"   Gusts: NA
Location:  40.5962°N, 77.7424°W
Report Text: KUNV 252253Z 23010KT 10SM SCT065 16/09 A2970
Loading
Personal Weather Stations






























Interactive Weather Map
Tropical Storm Tracking
New forecast layout! Learn more

10-Day Weather Forecast

Advertisements
Track Severe Weather on mobile